sensor_id;sensor_type;location;lat;lon;timestamp;P1;durP1;ratioP1;P2;durP2;ratioP2
35126;SDS011;21300;52.006;5.798;2022-08-21T00:00:45;3.70;;;1.38;;
35126;SDS011;21300;52.006;5.798;2022-08-21T00:03:12;3.25;;;1.25;;
35126;SDS011;21300;52.006;5.798;2022-08-21T00:05:40;2.25;;;1.50;;
35126;SDS011;21300;52.006;5.798;2022-08-21T00:08:09;1.90;;;1.20;;
35126;SDS011;21300;52.006;5.798;2022-08-21T00:10:35;2.80;;;1.60;;
35126;SDS011;21300;52.006;5.798;2022-08-21T00:13:01;5.90;;;1.73;;
35126;SDS011;21300;52.006;5.798;2022-08-21T00:15:29;2.90;;;1.30;;
35126;SDS011;21300;52.006;5.798;2022-08-21T00:17:55;3.75;;;1.48;;
35126;SDS011;21300;52.006;5.798;2022-08-21T00:20:22;3.80;;;1.58;;
35126;SDS011;21300;52.006;5.798;2022-08-21T00:22:48;4.25;;;1.50;;
35126;SDS011;21300;52.006;5.798;2022-08-21T00:25:15;3.03;;;1.38;;
35126;SDS011;21300;52.006;5.798;2022-08-21T00:27:41;6.40;;;1.90;;
35126;SDS011;21300;52.006;5.798;2022-08-21T00:30:08;3.53;;;1.60;;
35126;SDS011;21300;52.006;5.798;2022-08-21T00:32:36;2.95;;;1.60;;
35126;SDS011;21300;52.006;5.798;2022-08-21T00:35:04;2.53;;;1.60;;
35126;SDS011;21300;52.006;5.798;2022-08-21T00:37:32;2.45;;;1.70;;
35126;SDS011;21300;52.006;5.798;2022-08-21T00:39:58;4.78;;;1.55;;
35126;SDS011;21300;52.006;5.798;2022-08-21T00:42:24;5.22;;;1.55;;
35126;SDS011;21300;52.006;5.798;2022-08-21T00:44:50;4.15;;;1.85;;
35126;SDS011;21300;52.006;5.798;2022-08-21T00:47:35;5.43;;;1.70;;
35126;SDS011;21300;52.006;5.798;2022-08-21T00:50:00;3.35;;;1.90;;
35126;SDS011;21300;52.006;5.798;2022-08-21T00:52:28;3.63;;;2.10;;
35126;SDS011;21300;52.006;5.798;2022-08-21T00:54:57;5.55;;;2.20;;
35126;SDS011;21300;52.006;5.798;2022-08-21T00:57:36;3.78;;;2.10;;
35126;SDS011;21300;52.006;5.798;2022-08-21T01:00:08;4.45;;;2.03;;
35126;SDS011;21300;52.006;5.798;2022-08-21T01:02:37;6.55;;;2.40;;
35126;SDS011;21300;52.006;5.798;2022-08-21T01:05:03;4.93;;;1.90;;
35126;SDS011;21300;52.006;5.798;2022-08-21T01:07:30;4.35;;;2.30;;
35126;SDS011;21300;52.006;5.798;2022-08-21T01:09:56;4.10;;;2.00;;
35126;SDS011;21300;52.006;5.798;2022-08-21T01:12:22;4.75;;;2.28;;
35126;SDS011;21300;52.006;5.798;2022-08-21T01:14:48;3.97;;;2.00;;
35126;SDS011;21300;52.006;5.798;2022-08-21T01:17:14;4.93;;;2.25;;
35126;SDS011;21300;52.006;5.798;2022-08-21T01:19:40;6.47;;;2.13;;
35126;SDS011;21300;52.006;5.798;2022-08-21T01:22:06;4.68;;;2.10;;
35126;SDS011;21300;52.006;5.798;2022-08-21T01:24:32;4.40;;;2.30;;
35126;SDS011;21300;52.006;5.798;2022-08-21T01:26:58;4.43;;;2.10;;
35126;SDS011;21300;52.006;5.798;2022-08-21T01:30:08;5.60;;;2.60;;
35126;SDS011;21300;52.006;5.798;2022-08-21T01:32:17;5.95;;;2.38;;
35126;SDS011;21300;52.006;5.798;2022-08-21T01:34:45;3.88;;;2.08;;
35126;SDS011;21300;52.006;5.798;2022-08-21T01:37:12;4.95;;;2.90;;
35126;SDS011;21300;52.006;5.798;2022-08-21T01:39:39;4.43;;;2.28;;
35126;SDS011;21300;52.006;5.798;2022-08-21T01:42:05;5.75;;;2.35;;
35126;SDS011;21300;52.006;5.798;2022-08-21T01:44:31;3.78;;;2.08;;
35126;SDS011;21300;52.006;5.798;2022-08-21T01:46:58;4.20;;;2.22;;
35126;SDS011;21300;52.006;5.798;2022-08-21T01:49:26;4.05;;;2.10;;
35126;SDS011;21300;52.006;5.798;2022-08-21T01:51:52;4.70;;;2.22;;
35126;SDS011;21300;52.006;5.798;2022-08-21T01:54:18;4.72;;;2.33;;
35126;SDS011;21300;52.006;5.798;2022-08-21T01:56:45;4.80;;;2.45;;
35126;SDS011;21300;52.006;5.798;2022-08-21T01:59:13;3.60;;;2.05;;
35126;SDS011;21300;52.006;5.798;2022-08-21T02:01:39;5.07;;;2.58;;
35126;SDS011;21300;52.006;5.798;2022-08-21T02:04:05;3.60;;;2.50;;
35126;SDS011;21300;52.006;5.798;2022-08-21T02:06:32;3.90;;;2.13;;
35126;SDS011;21300;52.006;5.798;2022-08-21T02:08:58;4.47;;;2.00;;
35126;SDS011;21300;52.006;5.798;2022-08-21T02:11:23;3.92;;;2.35;;
35126;SDS011;21300;52.006;5.798;2022-08-21T02:13:49;3.65;;;2.30;;
35126;SDS011;21300;52.006;5.798;2022-08-21T02:16:15;4.93;;;2.33;;
35126;SDS011;21300;52.006;5.798;2022-08-21T02:18:41;4.82;;;2.33;;
35126;SDS011;21300;52.006;5.798;2022-08-21T02:21:06;4.00;;;2.30;;
35126;SDS011;21300;52.006;5.798;2022-08-21T02:23:32;6.22;;;2.28;;
35126;SDS011;21300;52.006;5.798;2022-08-21T02:26:03;3.90;;;2.17;;
35126;SDS011;21300;52.006;5.798;2022-08-21T02:28:31;4.00;;;2.20;;
35126;SDS011;21300;52.006;5.798;2022-08-21T02:30:59;5.85;;;2.40;;
35126;SDS011;21300;52.006;5.798;2022-08-21T02:33:26;4.85;;;2.38;;
35126;SDS011;21300;52.006;5.798;2022-08-21T02:35:52;3.88;;;2.80;;
35126;SDS011;21300;52.006;5.798;2022-08-21T02:38:23;3.63;;;2.42;;
35126;SDS011;21300;52.006;5.798;2022-08-21T02:40:53;3.85;;;2.47;;
35126;SDS011;21300;52.006;5.798;2022-08-21T02:43:20;3.80;;;2.38;;
35126;SDS011;21300;52.006;5.798;2022-08-21T02:45:47;5.00;;;2.45;;
35126;SDS011;21300;52.006;5.798;2022-08-21T02:48:14;4.72;;;2.38;;
35126;SDS011;21300;52.006;5.798;2022-08-21T02:50:46;5.40;;;2.55;;
35126;SDS011;21300;52.006;5.798;2022-08-21T02:53:15;7.07;;;3.50;;
35126;SDS011;21300;52.006;5.798;2022-08-21T02:55:42;4.40;;;2.40;;
35126;SDS011;21300;52.006;5.798;2022-08-21T02:58:09;4.95;;;2.50;;
35126;SDS011;21300;52.006;5.798;2022-08-21T03:00:35;3.75;;;2.70;;
35126;SDS011;21300;52.006;5.798;2022-08-21T03:03:02;5.32;;;2.72;;
35126;SDS011;21300;52.006;5.798;2022-08-21T03:05:28;4.65;;;2.72;;
35126;SDS011;21300;52.006;5.798;2022-08-21T03:07:56;4.63;;;2.65;;
35126;SDS011;21300;52.006;5.798;2022-08-21T03:10:23;5.32;;;3.00;;
35126;SDS011;21300;52.006;5.798;2022-08-21T03:12:50;3.80;;;2.50;;
35126;SDS011;21300;52.006;5.798;2022-08-21T03:15:16;6.78;;;3.10;;
35126;SDS011;21300;52.006;5.798;2022-08-21T03:17:43;4.40;;;2.70;;
35126;SDS011;21300;52.006;5.798;2022-08-21T03:20:10;6.78;;;3.30;;
35126;SDS011;21300;52.006;5.798;2022-08-21T03:22:39;5.70;;;3.28;;
35126;SDS011;21300;52.006;5.798;2022-08-21T03:25:04;4.72;;;3.03;;
35126;SDS011;21300;52.006;5.798;2022-08-21T03:27:31;4.55;;;2.72;;
35126;SDS011;21300;52.006;5.798;2022-08-21T03:29:58;4.18;;;2.60;;
35126;SDS011;21300;52.006;5.798;2022-08-21T03:32:25;3.55;;;2.60;;
35126;SDS011;21300;52.006;5.798;2022-08-21T03:34:51;5.88;;;3.05;;
35126;SDS011;21300;52.006;5.798;2022-08-21T03:37:16;3.88;;;2.70;;
35126;SDS011;21300;52.006;5.798;2022-08-21T03:39:42;6.40;;;2.75;;
35126;SDS011;21300;52.006;5.798;2022-08-21T03:42:09;3.95;;;2.65;;
35126;SDS011;21300;52.006;5.798;2022-08-21T03:44:35;5.22;;;2.75;;
35126;SDS011;21300;52.006;5.798;2022-08-21T03:47:01;4.75;;;2.65;;
35126;SDS011;21300;52.006;5.798;2022-08-21T03:49:27;3.72;;;2.50;;
35126;SDS011;21300;52.006;5.798;2022-08-21T03:51:53;5.03;;;3.28;;
35126;SDS011;21300;52.006;5.798;2022-08-21T03:54:19;4.10;;;2.70;;
35126;SDS011;21300;52.006;5.798;2022-08-21T03:56:45;4.40;;;2.90;;
35126;SDS011;21300;52.006;5.798;2022-08-21T03:59:10;4.50;;;3.33;;
35126;SDS011;21300;52.006;5.798;2022-08-21T04:01:36;5.15;;;2.83;;
35126;SDS011;21300;52.006;5.798;2022-08-21T04:04:03;3.80;;;2.75;;
35126;SDS011;21300;52.006;5.798;2022-08-21T04:06:29;4.57;;;3.13;;
35126;SDS011;21300;52.006;5.798;2022-08-21T04:08:55;7.53;;;3.75;;
35126;SDS011;21300;52.006;5.798;2022-08-21T04:11:20;7.25;;;3.75;;
35126;SDS011;21300;52.006;5.798;2022-08-21T04:13:46;4.65;;;3.72;;
35126;SDS011;21300;52.006;5.798;2022-08-21T04:16:12;6.43;;;3.72;;
35126;SDS011;21300;52.006;5.798;2022-08-21T04:18:38;5.60;;;3.47;;
35126;SDS011;21300;52.006;5.798;2022-08-21T04:21:04;4.45;;;3.20;;
35126;SDS011;21300;52.006;5.798;2022-08-21T04:23:32;7.40;;;3.30;;
35126;SDS011;21300;52.006;5.798;2022-08-21T04:25:58;6.95;;;3.45;;
35126;SDS011;21300;52.006;5.798;2022-08-21T04:28:25;5.32;;;3.25;;
35126;SDS011;21300;52.006;5.798;2022-08-21T04:30:52;3.35;;;2.72;;
35126;SDS011;21300;52.006;5.798;2022-08-21T04:33:19;6.10;;;3.05;;
35126;SDS011;21300;52.006;5.798;2022-08-21T04:35:45;4.35;;;2.65;;
35126;SDS011;21300;52.006;5.798;2022-08-21T04:38:30;6.90;;;3.37;;
35126;SDS011;21300;52.006;5.798;2022-08-21T04:40:58;4.97;;;3.25;;
35126;SDS011;21300;52.006;5.798;2022-08-21T04:43:24;8.40;;;3.08;;
35126;SDS011;21300;52.006;5.798;2022-08-21T04:45:51;5.25;;;2.97;;
35126;SDS011;21300;52.006;5.798;2022-08-21T04:48:18;4.03;;;3.03;;
35126;SDS011;21300;52.006;5.798;2022-08-21T04:53:20;4.55;;;3.35;;
35126;SDS011;21300;52.006;5.798;2022-08-21T04:55:56;4.57;;;3.13;;
35126;SDS011;21300;52.006;5.798;2022-08-21T04:58:25;6.07;;;3.20;;
35126;SDS011;21300;52.006;5.798;2022-08-21T05:00:55;4.50;;;3.50;;
35126;SDS011;21300;52.006;5.798;2022-08-21T05:03:22;6.00;;;3.05;;
35126;SDS011;21300;52.006;5.798;2022-08-21T05:05:48;5.85;;;3.28;;
35126;SDS011;21300;52.006;5.798;2022-08-21T05:08:16;4.57;;;3.40;;
35126;SDS011;21300;52.006;5.798;2022-08-21T05:10:45;7.90;;;3.80;;
35126;SDS011;21300;52.006;5.798;2022-08-21T05:13:14;5.95;;;3.72;;
35126;SDS011;21300;52.006;5.798;2022-08-21T05:15:40;6.00;;;3.65;;
35126;SDS011;21300;52.006;5.798;2022-08-21T05:18:06;6.03;;;4.03;;
35126;SDS011;21300;52.006;5.798;2022-08-21T05:20:32;5.22;;;3.97;;
35126;SDS011;21300;52.006;5.798;2022-08-21T05:22:59;6.32;;;3.75;;
35126;SDS011;21300;52.006;5.798;2022-08-21T05:25:25;6.25;;;3.83;;
35126;SDS011;21300;52.006;5.798;2022-08-21T05:27:51;5.47;;;3.45;;
35126;SDS011;21300;52.006;5.798;2022-08-21T05:30:18;5.60;;;3.83;;
35126;SDS011;21300;52.006;5.798;2022-08-21T05:32:45;5.65;;;3.85;;
35126;SDS011;21300;52.006;5.798;2022-08-21T05:35:11;5.15;;;3.45;;
35126;SDS011;21300;52.006;5.798;2022-08-21T05:37:37;5.32;;;3.60;;
35126;SDS011;21300;52.006;5.798;2022-08-21T05:40:03;4.20;;;3.33;;
35126;SDS011;21300;52.006;5.798;2022-08-21T05:42:30;4.63;;;3.60;;
35126;SDS011;21300;52.006;5.798;2022-08-21T05:44:55;10.10;;;4.13;;
35126;SDS011;21300;52.006;5.798;2022-08-21T05:47:21;6.57;;;3.53;;
35126;SDS011;21300;52.006;5.798;2022-08-21T05:49:46;7.75;;;4.50;;
35126;SDS011;21300;52.006;5.798;2022-08-21T05:52:17;6.00;;;4.43;;
35126;SDS011;21300;52.006;5.798;2022-08-21T05:54:44;8.15;;;5.07;;
35126;SDS011;21300;52.006;5.798;2022-08-21T05:57:28;7.60;;;5.35;;
35126;SDS011;21300;52.006;5.798;2022-08-21T05:59:53;6.50;;;5.80;;
35126;SDS011;21300;52.006;5.798;2022-08-21T06:02:38;10.95;;;6.75;;
35126;SDS011;21300;52.006;5.798;2022-08-21T06:05:05;11.95;;;7.20;;
35126;SDS011;21300;52.006;5.798;2022-08-21T06:07:31;12.85;;;7.75;;
35126;SDS011;21300;52.006;5.798;2022-08-21T06:09:56;10.80;;;7.85;;
35126;SDS011;21300;52.006;5.798;2022-08-21T06:12:22;12.70;;;8.13;;
35126;SDS011;21300;52.006;5.798;2022-08-21T06:14:48;11.13;;;8.18;;
35126;SDS011;21300;52.006;5.798;2022-08-21T06:17:15;12.18;;;8.70;;
35126;SDS011;21300;52.006;5.798;2022-08-21T06:19:41;16.77;;;8.88;;
35126;SDS011;21300;52.006;5.798;2022-08-21T06:22:07;14.20;;;8.80;;
35126;SDS011;21300;52.006;5.798;2022-08-21T06:24:32;14.38;;;8.50;;
35126;SDS011;21300;52.006;5.798;2022-08-21T06:27:03;15.73;;;8.98;;
35126;SDS011;21300;52.006;5.798;2022-08-21T06:29:30;10.48;;;7.70;;
35126;SDS011;21300;52.006;5.798;2022-08-21T06:31:55;14.50;;;8.98;;
35126;SDS011;21300;52.006;5.798;2022-08-21T06:34:21;15.57;;;8.52;;
35126;SDS011;21300;52.006;5.798;2022-08-21T06:36:47;15.85;;;8.25;;
35126;SDS011;21300;52.006;5.798;2022-08-21T06:39:12;21.40;;;8.95;;
35126;SDS011;21300;52.006;5.798;2022-08-21T06:41:38;17.25;;;9.70;;
35126;SDS011;21300;52.006;5.798;2022-08-21T06:44:04;14.93;;;9.25;;
35126;SDS011;21300;52.006;5.798;2022-08-21T06:46:30;16.80;;;8.60;;
35126;SDS011;21300;52.006;5.798;2022-08-21T06:48:56;14.75;;;8.90;;
35126;SDS011;21300;52.006;5.798;2022-08-21T06:51:22;17.70;;;9.25;;
35126;SDS011;21300;52.006;5.798;2022-08-21T06:53:50;16.10;;;8.63;;
35126;SDS011;21300;52.006;5.798;2022-08-21T06:56:16;17.00;;;8.85;;
35126;SDS011;21300;52.006;5.798;2022-08-21T06:58:41;15.15;;;8.52;;
35126;SDS011;21300;52.006;5.798;2022-08-21T07:01:07;18.48;;;8.98;;
35126;SDS011;21300;52.006;5.798;2022-08-21T07:03:34;14.38;;;7.82;;
35126;SDS011;21300;52.006;5.798;2022-08-21T07:06:02;17.58;;;8.07;;
35126;SDS011;21300;52.006;5.798;2022-08-21T07:08:29;15.07;;;8.27;;
35126;SDS011;21300;52.006;5.798;2022-08-21T07:10:56;17.08;;;8.43;;
35126;SDS011;21300;52.006;5.798;2022-08-21T07:13:23;15.35;;;7.25;;
35126;SDS011;21300;52.006;5.798;2022-08-21T07:15:49;14.90;;;8.07;;
35126;SDS011;21300;52.006;5.798;2022-08-21T07:18:15;16.40;;;8.43;;
35126;SDS011;21300;52.006;5.798;2022-08-21T07:20:41;11.70;;;7.45;;
35126;SDS011;21300;52.006;5.798;2022-08-21T07:23:09;12.00;;;6.93;;
35126;SDS011;21300;52.006;5.798;2022-08-21T07:28:08;14.48;;;7.50;;
35126;SDS011;21300;52.006;5.798;2022-08-21T07:30:33;18.50;;;7.80;;
35126;SDS011;21300;52.006;5.798;2022-08-21T07:33:00;15.05;;;7.97;;
35126;SDS011;21300;52.006;5.798;2022-08-21T07:35:26;16.85;;;7.80;;
35126;SDS011;21300;52.006;5.798;2022-08-21T07:37:53;18.88;;;8.02;;
35126;SDS011;21300;52.006;5.798;2022-08-21T07:40:19;16.98;;;7.95;;
35126;SDS011;21300;52.006;5.798;2022-08-21T07:42:45;18.85;;;7.95;;
35126;SDS011;21300;52.006;5.798;2022-08-21T07:45:12;18.25;;;7.45;;
35126;SDS011;21300;52.006;5.798;2022-08-21T07:47:38;19.48;;;7.05;;
35126;SDS011;21300;52.006;5.798;2022-08-21T07:50:05;19.80;;;8.00;;
35126;SDS011;21300;52.006;5.798;2022-08-21T07:52:31;16.73;;;6.75;;
35126;SDS011;21300;52.006;5.798;2022-08-21T07:54:58;10.02;;;4.85;;
35126;SDS011;21300;52.006;5.798;2022-08-21T07:57:24;13.77;;;7.07;;
35126;SDS011;21300;52.006;5.798;2022-08-21T07:59:49;18.77;;;7.03;;
35126;SDS011;21300;52.006;5.798;2022-08-21T08:02:22;16.98;;;7.20;;
35126;SDS011;21300;52.006;5.798;2022-08-21T08:04:52;18.70;;;7.60;;
35126;SDS011;21300;52.006;5.798;2022-08-21T08:07:18;15.13;;;7.15;;
35126;SDS011;21300;52.006;5.798;2022-08-21T08:09:44;18.83;;;6.50;;
35126;SDS011;21300;52.006;5.798;2022-08-21T08:12:09;16.77;;;6.80;;
35126;SDS011;21300;52.006;5.798;2022-08-21T08:14:35;16.48;;;6.05;;
35126;SDS011;21300;52.006;5.798;2022-08-21T08:17:01;16.85;;;6.28;;
35126;SDS011;21300;52.006;5.798;2022-08-21T08:19:27;16.15;;;6.57;;
35126;SDS011;21300;52.006;5.798;2022-08-21T08:21:53;17.05;;;6.13;;
35126;SDS011;21300;52.006;5.798;2022-08-21T08:24:19;16.55;;;6.10;;
35126;SDS011;21300;52.006;5.798;2022-08-21T08:26:45;14.38;;;5.90;;
35126;SDS011;21300;52.006;5.798;2022-08-21T08:29:11;20.80;;;6.03;;
35126;SDS011;21300;52.006;5.798;2022-08-21T08:31:37;21.00;;;6.10;;
35126;SDS011;21300;52.006;5.798;2022-08-21T08:34:03;17.00;;;4.70;;
35126;SDS011;21300;52.006;5.798;2022-08-21T08:36:33;17.95;;;6.25;;
35126;SDS011;21300;52.006;5.798;2022-08-21T08:39:00;12.65;;;5.07;;
35126;SDS011;21300;52.006;5.798;2022-08-21T08:41:26;18.98;;;6.50;;
35126;SDS011;21300;52.006;5.798;2022-08-21T08:43:53;14.38;;;5.82;;
35126;SDS011;21300;52.006;5.798;2022-08-21T08:52:07;18.27;;;5.25;;
35126;SDS011;21300;52.006;5.798;2022-08-21T08:54:59;11.65;;;3.92;;
35126;SDS011;21300;52.006;5.798;2022-08-21T08:57:26;20.75;;;5.15;;
35126;SDS011;21300;52.006;5.798;2022-08-21T08:59:53;14.68;;;4.95;;
35126;SDS011;21300;52.006;5.798;2022-08-21T09:02:23;15.25;;;4.75;;
35126;SDS011;21300;52.006;5.798;2022-08-21T09:04:49;14.65;;;4.18;;
35126;SDS011;21300;52.006;5.798;2022-08-21T09:07:20;8.30;;;3.13;;
35126;SDS011;21300;52.006;5.798;2022-08-21T09:10:20;11.65;;;3.22;;
35126;SDS011;21300;52.006;5.798;2022-08-21T09:15:57;13.98;;;4.15;;
35126;SDS011;21300;52.006;5.798;2022-08-21T09:18:52;8.70;;;3.03;;
35126;SDS011;21300;52.006;5.798;2022-08-21T09:21:38;12.05;;;3.85;;
35126;SDS011;21300;52.006;5.798;2022-08-21T09:27:09;12.30;;;3.00;;
35126;SDS011;21300;52.006;5.798;2022-08-21T09:29:38;9.70;;;3.42;;
35126;SDS011;21300;52.006;5.798;2022-08-21T09:32:10;12.32;;;3.55;;
35126;SDS011;21300;52.006;5.798;2022-08-21T09:35:00;9.95;;;2.50;;
35126;SDS011;21300;52.006;5.798;2022-08-21T09:37:30;14.93;;;2.40;;
35126;SDS011;21300;52.006;5.798;2022-08-21T09:39:59;13.55;;;2.60;;
35126;SDS011;21300;52.006;5.798;2022-08-21T09:42:27;12.00;;;2.53;;
35126;SDS011;21300;52.006;5.798;2022-08-21T09:45:06;11.88;;;2.90;;
35126;SDS011;21300;52.006;5.798;2022-08-21T09:47:35;9.60;;;2.08;;
35126;SDS011;21300;52.006;5.798;2022-08-21T09:50:09;10.20;;;2.70;;
35126;SDS011;21300;52.006;5.798;2022-08-21T09:52:41;8.65;;;1.95;;
35126;SDS011;21300;52.006;5.798;2022-08-21T09:55:13;14.38;;;2.67;;
35126;SDS011;21300;52.006;5.798;2022-08-21T09:58:03;10.20;;;2.40;;
35126;SDS011;21300;52.006;5.798;2022-08-21T10:00:30;9.57;;;2.65;;
35126;SDS011;21300;52.006;5.798;2022-08-21T10:03:16;8.80;;;2.40;;
35126;SDS011;21300;52.006;5.798;2022-08-21T10:05:55;7.22;;;2.92;;
35126;SDS011;21300;52.006;5.798;2022-08-21T10:08:34;13.23;;;2.50;;
35126;SDS011;21300;52.006;5.798;2022-08-21T10:11:19;12.77;;;2.50;;
35126;SDS011;21300;52.006;5.798;2022-08-21T10:14:04;5.97;;;2.00;;
35126;SDS011;21300;52.006;5.798;2022-08-21T10:22:38;8.73;;;2.00;;
35126;SDS011;21300;52.006;5.798;2022-08-21T10:25:31;11.90;;;2.30;;
35126;SDS011;21300;52.006;5.798;2022-08-21T10:28:27;7.88;;;1.83;;
35126;SDS011;21300;52.006;5.798;2022-08-21T10:31:19;13.13;;;3.03;;
35126;SDS011;21300;52.006;5.798;2022-08-21T10:36:46;11.85;;;2.45;;
35126;SDS011;21300;52.006;5.798;2022-08-21T10:39:21;11.35;;;2.88;;
35126;SDS011;21300;52.006;5.798;2022-08-21T10:44:41;8.65;;;2.30;;
35126;SDS011;21300;52.006;5.798;2022-08-21T10:47:12;9.63;;;2.40;;
35126;SDS011;21300;52.006;5.798;2022-08-21T10:49:58;8.15;;;1.77;;
35126;SDS011;21300;52.006;5.798;2022-08-21T10:55:25;8.63;;;1.80;;
35126;SDS011;21300;52.006;5.798;2022-08-21T10:57:57;7.50;;;1.60;;
35126;SDS011;21300;52.006;5.798;2022-08-21T11:03:17;9.93;;;1.95;;
35126;SDS011;21300;52.006;5.798;2022-08-21T11:06:02;10.00;;;1.92;;
35126;SDS011;21300;52.006;5.798;2022-08-21T11:08:32;7.93;;;2.40;;
35126;SDS011;21300;52.006;5.798;2022-08-21T11:13:51;10.02;;;2.28;;
35126;SDS011;21300;52.006;5.798;2022-08-21T11:16:37;6.13;;;2.00;;
35126;SDS011;21300;52.006;5.798;2022-08-21T11:24:40;8.05;;;2.00;;
35126;SDS011;21300;52.006;5.798;2022-08-21T11:27:36;12.85;;;2.42;;
35126;SDS011;21300;52.006;5.798;2022-08-21T11:30:06;7.15;;;2.17;;
35126;SDS011;21300;52.006;5.798;2022-08-21T11:43:53;10.00;;;2.53;;
35126;SDS011;21300;52.006;5.798;2022-08-21T11:57:57;5.65;;;1.70;;
35126;SDS011;21300;52.006;5.798;2022-08-21T12:00:30;8.30;;;1.98;;
35126;SDS011;21300;52.006;5.798;2022-08-21T12:03:10;8.48;;;1.80;;
35126;SDS011;21300;52.006;5.798;2022-08-21T12:05:42;4.60;;;1.60;;
35126;SDS011;21300;52.006;5.798;2022-08-21T12:08:30;5.55;;;1.23;;
35126;SDS011;21300;52.006;5.798;2022-08-21T12:13:34;6.90;;;1.75;;
35126;SDS011;21300;52.006;5.798;2022-08-21T12:16:37;5.90;;;1.58;;
35126;SDS011;21300;52.006;5.798;2022-08-21T12:19:03;8.45;;;1.63;;
35126;SDS011;21300;52.006;5.798;2022-08-21T12:21:34;8.30;;;2.03;;
35126;SDS011;21300;52.006;5.798;2022-08-21T12:24:40;5.57;;;1.60;;
35126;SDS011;21300;52.006;5.798;2022-08-21T12:29:47;4.75;;;1.45;;
35126;SDS011;21300;52.006;5.798;2022-08-21T12:43:05;8.55;;;1.63;;
35126;SDS011;21300;52.006;5.798;2022-08-21T12:45:40;3.28;;;1.40;;
35126;SDS011;21300;52.006;5.798;2022-08-21T12:48:10;6.30;;;1.23;;
35126;SDS011;21300;52.006;5.798;2022-08-21T12:50:45;8.07;;;1.35;;
35126;SDS011;21300;52.006;5.798;2022-08-21T12:53:31;5.20;;;1.13;;
35126;SDS011;21300;52.006;5.798;2022-08-21T12:56:08;5.55;;;1.35;;
35126;SDS011;21300;52.006;5.798;2022-08-21T12:58:36;3.60;;;1.25;;
35126;SDS011;21300;52.006;5.798;2022-08-21T13:01:07;6.32;;;1.35;;
35126;SDS011;21300;52.006;5.798;2022-08-21T13:03:40;5.10;;;1.35;;
35126;SDS011;21300;52.006;5.798;2022-08-21T13:06:06;6.18;;;1.50;;
35126;SDS011;21300;52.006;5.798;2022-08-21T13:08:38;4.93;;;1.20;;
35126;SDS011;21300;52.006;5.798;2022-08-21T13:11:04;5.72;;;1.35;;
35126;SDS011;21300;52.006;5.798;2022-08-21T13:13:31;4.50;;;1.20;;
35126;SDS011;21300;52.006;5.798;2022-08-21T13:16:05;4.38;;;1.80;;
35126;SDS011;21300;52.006;5.798;2022-08-21T13:18:33;7.90;;;2.15;;
35126;SDS011;21300;52.006;5.798;2022-08-21T13:21:09;4.03;;;1.52;;
35126;SDS011;21300;52.006;5.798;2022-08-21T13:23:38;5.88;;;2.00;;
35126;SDS011;21300;52.006;5.798;2022-08-21T13:29:05;5.07;;;1.88;;
35126;SDS011;21300;52.006;5.798;2022-08-21T13:31:36;6.82;;;1.77;;
35126;SDS011;21300;52.006;5.798;2022-08-21T13:34:04;5.07;;;1.60;;
35126;SDS011;21300;52.006;5.798;2022-08-21T13:36:34;5.15;;;1.70;;
35126;SDS011;21300;52.006;5.798;2022-08-21T13:39:04;5.13;;;1.73;;
35126;SDS011;21300;52.006;5.798;2022-08-21T13:41:36;4.35;;;1.30;;
35126;SDS011;21300;52.006;5.798;2022-08-21T13:46:40;5.50;;;1.40;;
35126;SDS011;21300;52.006;5.798;2022-08-21T13:49:06;6.78;;;1.70;;
35126;SDS011;21300;52.006;5.798;2022-08-21T13:51:35;4.80;;;1.73;;
35126;SDS011;21300;52.006;5.798;2022-08-21T13:54:02;8.15;;;2.13;;
35126;SDS011;21300;52.006;5.798;2022-08-21T13:56:51;5.13;;;1.80;;
35126;SDS011;21300;52.006;5.798;2022-08-21T14:02:07;6.28;;;1.50;;
35126;SDS011;21300;52.006;5.798;2022-08-21T14:04:50;4.43;;;1.52;;
35126;SDS011;21300;52.006;5.798;2022-08-21T14:07:20;3.70;;;1.10;;
35126;SDS011;21300;52.006;5.798;2022-08-21T14:10:00;5.18;;;1.60;;
35126;SDS011;21300;52.006;5.798;2022-08-21T14:12:41;5.80;;;1.10;;
35126;SDS011;21300;52.006;5.798;2022-08-21T14:15:13;6.03;;;1.25;;
35126;SDS011;21300;52.006;5.798;2022-08-21T14:17:40;3.22;;;1.20;;
35126;SDS011;21300;52.006;5.798;2022-08-21T14:20:07;7.32;;;1.85;;
35126;SDS011;21300;52.006;5.798;2022-08-21T14:22:40;6.03;;;1.45;;
35126;SDS011;21300;52.006;5.798;2022-08-21T14:27:43;7.07;;;2.35;;
35126;SDS011;21300;52.006;5.798;2022-08-21T14:30:19;6.50;;;2.40;;
35126;SDS011;21300;52.006;5.798;2022-08-21T14:33:08;8.73;;;2.00;;
35126;SDS011;21300;52.006;5.798;2022-08-21T14:35:36;5.65;;;1.52;;
35126;SDS011;21300;52.006;5.798;2022-08-21T14:38:01;5.80;;;2.40;;
35126;SDS011;21300;52.006;5.798;2022-08-21T14:40:35;7.22;;;2.92;;
35126;SDS011;21300;52.006;5.798;2022-08-21T14:43:01;6.38;;;2.40;;
35126;SDS011;21300;52.006;5.798;2022-08-21T14:45:28;33.40;;;21.55;;
35126;SDS011;21300;52.006;5.798;2022-08-21T14:47:55;12.10;;;7.65;;
35126;SDS011;21300;52.006;5.798;2022-08-21T14:50:22;4.60;;;1.50;;
35126;SDS011;21300;52.006;5.798;2022-08-21T14:52:48;5.40;;;1.30;;
35126;SDS011;21300;52.006;5.798;2022-08-21T14:55:14;12.27;;;8.00;;
35126;SDS011;21300;52.006;5.798;2022-08-21T14:57:43;5.38;;;1.38;;
35126;SDS011;21300;52.006;5.798;2022-08-21T15:00:15;6.32;;;2.17;;
35126;SDS011;21300;52.006;5.798;2022-08-21T15:02:43;6.13;;;3.28;;
35126;SDS011;21300;52.006;5.798;2022-08-21T15:05:09;5.18;;;1.40;;
35126;SDS011;21300;52.006;5.798;2022-08-21T15:07:35;8.13;;;1.85;;
35126;SDS011;21300;52.006;5.798;2022-08-21T15:10:03;3.75;;;1.27;;
35126;SDS011;21300;52.006;5.798;2022-08-21T15:12:29;6.00;;;1.70;;
35126;SDS011;21300;52.006;5.798;2022-08-21T15:14:55;4.95;;;1.20;;
35126;SDS011;21300;52.006;5.798;2022-08-21T15:17:21;4.13;;;1.50;;
35126;SDS011;21300;52.006;5.798;2022-08-21T15:19:47;4.45;;;2.08;;
35126;SDS011;21300;52.006;5.798;2022-08-21T15:22:12;4.55;;;1.17;;
35126;SDS011;21300;52.006;5.798;2022-08-21T15:24:38;6.38;;;1.60;;
35126;SDS011;21300;52.006;5.798;2022-08-21T15:27:04;2.90;;;1.10;;
35126;SDS011;21300;52.006;5.798;2022-08-21T15:29:32;5.30;;;1.20;;
35126;SDS011;21300;52.006;5.798;2022-08-21T15:31:59;6.28;;;1.40;;
35126;SDS011;21300;52.006;5.798;2022-08-21T15:34:27;3.58;;;1.23;;
35126;SDS011;21300;52.006;5.798;2022-08-21T15:36:54;5.80;;;1.30;;
35126;SDS011;21300;52.006;5.798;2022-08-21T15:39:21;6.40;;;1.63;;
35126;SDS011;21300;52.006;5.798;2022-08-21T15:41:47;5.25;;;1.15;;
35126;SDS011;21300;52.006;5.798;2022-08-21T15:44:13;6.68;;;2.38;;
35126;SDS011;21300;52.006;5.798;2022-08-21T15:46:39;6.57;;;1.88;;
35126;SDS011;21300;52.006;5.798;2022-08-21T15:49:05;5.78;;;1.52;;
35126;SDS011;21300;52.006;5.798;2022-08-21T15:51:32;5.80;;;1.55;;
35126;SDS011;21300;52.006;5.798;2022-08-21T15:53:58;6.00;;;1.58;;
35126;SDS011;21300;52.006;5.798;2022-08-21T15:56:25;5.03;;;1.67;;
35126;SDS011;21300;52.006;5.798;2022-08-21T15:59:04;6.75;;;1.50;;
35126;SDS011;21300;52.006;5.798;2022-08-21T16:01:34;8.02;;;2.45;;
35126;SDS011;21300;52.006;5.798;2022-08-21T16:04:01;5.55;;;1.52;;
35126;SDS011;21300;52.006;5.798;2022-08-21T16:06:28;7.10;;;1.50;;
35126;SDS011;21300;52.006;5.798;2022-08-21T16:08:54;4.10;;;1.35;;
35126;SDS011;21300;52.006;5.798;2022-08-21T16:11:19;6.63;;;1.60;;
35126;SDS011;21300;52.006;5.798;2022-08-21T16:13:45;5.45;;;1.48;;
35126;SDS011;21300;52.006;5.798;2022-08-21T16:16:14;8.23;;;4.38;;
35126;SDS011;21300;52.006;5.798;2022-08-21T16:18:43;7.45;;;1.83;;
35126;SDS011;21300;52.006;5.798;2022-08-21T16:21:10;4.55;;;1.33;;
35126;SDS011;21300;52.006;5.798;2022-08-21T16:23:35;4.90;;;1.48;;
35126;SDS011;21300;52.006;5.798;2022-08-21T16:26:03;5.43;;;1.30;;
35126;SDS011;21300;52.006;5.798;2022-08-21T16:28:30;7.03;;;1.73;;